Portada
METAR-TAF:

METAR-TAF

Aeroports :

Elko, Nevada, Estats Units d'Amèrica

latitud: 40-49-30N, longitud: 115-47-30W, altitud: 1568 m

Observació

L'informe es va fer fa 53 minuts, a les 15:56 UTC
Vent calma
Temperatura -5°C
Humitat 63%
Pressió 1032 hPa
Visibilitat: 16.1 km
Cel clar

METAR: KEKO 261556Z AUTO 00000KT 10SM CLR M05/M11 A3047 RMK AO2 SLP354 T10501106

Hora: 08:49 (16:49 UTC)

Pronòstic

L'informe es va fer fa 5 hores i 19 minuts, a les 11:30 UTC
Pronòstic vàlid del 26 a les 12 UTC al 27 a les 12 UTC
Vent 4 kt amb direcció variable
Visibilitat: 10 km
Núvols disperses a una alçada de 20000 ft
A partir de les 26 a les 2100 UTC
Vent 7 kt del Oest/Sud-Oest
Visibilitat: 10 km
Escasses núvols a una alçada de 20000 ft
A partir de les 27 a les 0200 UTC
Vent 3 kt amb direcció variable
Visibilitat: 10 km
Cel clar

TAF: KEKO 261130Z 2612/2712 VRB04KT P6SM SCT200 FM262100 24007KT P6SM FEW200 FM270200 VRB03KT P6SM SKC

Observacions i pronòstics meteorològics de més de 4000 aeroports (METAR i TAF).

Les estacions disponibles són els punts grocs i vermells al mapa.

Posi el ratolí al punt desitjat per veure el nom de l'estació.

Feu clic per veure les observacions i els pronòstics meteorològics.

Per canviar el mapa: feu clic els botons verds amb una creu de color negre per apropar; al botó verd amb un guió per allunyar la imatge; o en les fletxes verdes per a mapes adjacents.


METAR-TAF: